sensor_id;sensor_type;location;lat;lon;timestamp;P1;durP1;ratioP1;P2;durP2;ratioP2
25637;SDS011;13496;51.040;13.680;2022-09-09T00:05:04;1.13;;;1.02;;
25637;SDS011;13496;51.040;13.680;2022-09-09T00:21:07;1.83;;;1.27;;
25637;SDS011;13496;51.040;13.680;2022-09-09T00:31:39;1.88;;;1.40;;
25637;SDS011;13496;51.040;13.680;2022-09-09T00:36:41;0.93;;;0.90;;
25637;SDS011;13496;51.040;13.680;2022-09-09T00:42:02;1.20;;;1.10;;
25637;SDS011;13496;51.040;13.680;2022-09-09T00:58:07;1.58;;;0.90;;
25637;SDS011;13496;51.040;13.680;2022-09-09T01:14:13;1.52;;;1.00;;
25637;SDS011;13496;51.040;13.680;2022-09-09T01:19:25;1.00;;;0.80;;
25637;SDS011;13496;51.040;13.680;2022-09-09T01:24:42;1.13;;;1.02;;
25637;SDS011;13496;51.040;13.680;2022-09-09T01:29:53;1.42;;;1.00;;
25637;SDS011;13496;51.040;13.680;2022-09-09T01:34:56;1.25;;;1.10;;
25637;SDS011;13496;51.040;13.680;2022-09-09T01:39:58;1.58;;;1.00;;
25637;SDS011;13496;51.040;13.680;2022-09-09T01:45:00;1.42;;;1.17;;
25637;SDS011;13496;51.040;13.680;2022-09-09T01:50:03;2.35;;;1.20;;
25637;SDS011;13496;51.040;13.680;2022-09-09T01:55:05;1.90;;;1.20;;
25637;SDS011;13496;51.040;13.680;2022-09-09T02:00:13;1.65;;;1.20;;
25637;SDS011;13496;51.040;13.680;2022-09-09T02:10:40;2.30;;;1.65;;
25637;SDS011;13496;51.040;13.680;2022-09-09T02:21:04;3.13;;;1.60;;
25637;SDS011;13496;51.040;13.680;2022-09-09T02:26:11;2.03;;;1.40;;
25637;SDS011;13496;51.040;13.680;2022-09-09T02:31:23;1.60;;;1.30;;
25637;SDS011;13496;51.040;13.680;2022-09-09T02:36:31;2.92;;;1.42;;
25637;SDS011;13496;51.040;13.680;2022-09-09T02:41:39;2.83;;;1.42;;
25637;SDS011;13496;51.040;13.680;2022-09-09T02:46:47;2.08;;;1.30;;
25637;SDS011;13496;51.040;13.680;2022-09-09T02:52:15;2.00;;;1.58;;
25637;SDS011;13496;51.040;13.680;2022-09-09T02:57:23;2.20;;;1.40;;
25637;SDS011;13496;51.040;13.680;2022-09-09T03:02:29;2.55;;;1.45;;
25637;SDS011;13496;51.040;13.680;2022-09-09T03:07:37;1.92;;;1.30;;
25637;SDS011;13496;51.040;13.680;2022-09-09T03:12:42;2.95;;;1.48;;
25637;SDS011;13496;51.040;13.680;2022-09-09T03:17:45;1.98;;;1.30;;
25637;SDS011;13496;51.040;13.680;2022-09-09T03:22:46;2.70;;;1.20;;
25637;SDS011;13496;51.040;13.680;2022-09-09T03:27:49;2.15;;;1.30;;
25637;SDS011;13496;51.040;13.680;2022-09-09T03:32:54;1.50;;;1.40;;
25637;SDS011;13496;51.040;13.680;2022-09-09T03:38:04;1.67;;;1.40;;
25637;SDS011;13496;51.040;13.680;2022-09-09T03:43:09;2.45;;;1.35;;
25637;SDS011;13496;51.040;13.680;2022-09-09T03:48:11;1.65;;;1.38;;
25637;SDS011;13496;51.040;13.680;2022-09-09T03:53:13;1.40;;;1.30;;
25637;SDS011;13496;51.040;13.680;2022-09-09T03:58:16;2.55;;;1.60;;
25637;SDS011;13496;51.040;13.680;2022-09-09T04:03:22;2.08;;;1.23;;
25637;SDS011;13496;51.040;13.680;2022-09-09T04:08:26;1.75;;;1.33;;
25637;SDS011;13496;51.040;13.680;2022-09-09T04:13:29;2.97;;;1.48;;
25637;SDS011;13496;51.040;13.680;2022-09-09T04:18:32;3.08;;;1.67;;
25637;SDS011;13496;51.040;13.680;2022-09-09T04:23:36;3.80;;;1.73;;
25637;SDS011;13496;51.040;13.680;2022-09-09T04:28:38;4.20;;;1.40;;
25637;SDS011;13496;51.040;13.680;2022-09-09T04:33:45;2.88;;;1.63;;
25637;SDS011;13496;51.040;13.680;2022-09-09T04:38:48;2.95;;;1.48;;
25637;SDS011;13496;51.040;13.680;2022-09-09T04:43:50;2.13;;;1.55;;
25637;SDS011;13496;51.040;13.680;2022-09-09T04:48:53;1.92;;;1.50;;
25637;SDS011;13496;51.040;13.680;2022-09-09T04:53:57;1.75;;;1.38;;
25637;SDS011;13496;51.040;13.680;2022-09-09T04:58:59;5.32;;;1.60;;
25637;SDS011;13496;51.040;13.680;2022-09-09T05:04:11;1.88;;;1.50;;
25637;SDS011;13496;51.040;13.680;2022-09-09T05:09:13;3.30;;;1.45;;
25637;SDS011;13496;51.040;13.680;2022-09-09T05:14:15;3.58;;;1.40;;
25637;SDS011;13496;51.040;13.680;2022-09-09T05:19:16;3.17;;;1.30;;
25637;SDS011;13496;51.040;13.680;2022-09-09T05:24:23;1.67;;;1.42;;
25637;SDS011;13496;51.040;13.680;2022-09-09T05:29:27;3.05;;;1.40;;
25637;SDS011;13496;51.040;13.680;2022-09-09T05:34:31;1.30;;;1.20;;
25637;SDS011;13496;51.040;13.680;2022-09-09T05:39:33;2.50;;;1.55;;
25637;SDS011;13496;51.040;13.680;2022-09-09T05:44:38;2.83;;;1.40;;
25637;SDS011;13496;51.040;13.680;2022-09-09T05:49:40;1.90;;;1.50;;
25637;SDS011;13496;51.040;13.680;2022-09-09T05:54:41;2.22;;;1.50;;
25637;SDS011;13496;51.040;13.680;2022-09-09T05:59:44;2.47;;;1.60;;
25637;SDS011;13496;51.040;13.680;2022-09-09T06:04:47;2.53;;;1.30;;
25637;SDS011;13496;51.040;13.680;2022-09-09T06:09:49;3.53;;;1.60;;
25637;SDS011;13496;51.040;13.680;2022-09-09T06:14:52;1.33;;;1.20;;
25637;SDS011;13496;51.040;13.680;2022-09-09T06:19:55;2.10;;;1.50;;
25637;SDS011;13496;51.040;13.680;2022-09-09T06:24:57;2.00;;;1.10;;
25637;SDS011;13496;51.040;13.680;2022-09-09T06:29:59;2.20;;;1.60;;
25637;SDS011;13496;51.040;13.680;2022-09-09T06:35:01;1.73;;;1.48;;
25637;SDS011;13496;51.040;13.680;2022-09-09T06:40:03;1.27;;;1.10;;
25637;SDS011;13496;51.040;13.680;2022-09-09T06:45:05;3.50;;;1.50;;
25637;SDS011;13496;51.040;13.680;2022-09-09T06:50:13;2.38;;;1.50;;
25637;SDS011;13496;51.040;13.680;2022-09-09T06:55:16;4.18;;;1.58;;
25637;SDS011;13496;51.040;13.680;2022-09-09T07:00:19;2.25;;;1.60;;
25637;SDS011;13496;51.040;13.680;2022-09-09T07:05:21;2.35;;;1.50;;
25637;SDS011;13496;51.040;13.680;2022-09-09T07:10:23;2.22;;;1.58;;
25637;SDS011;13496;51.040;13.680;2022-09-09T07:15:25;3.55;;;1.60;;
25637;SDS011;13496;51.040;13.680;2022-09-09T07:20:29;2.50;;;1.58;;
25637;SDS011;13496;51.040;13.680;2022-09-09T07:25:31;3.35;;;1.70;;
25637;SDS011;13496;51.040;13.680;2022-09-09T07:30:33;3.00;;;1.75;;
25637;SDS011;13496;51.040;13.680;2022-09-09T07:35:35;2.70;;;1.52;;
25637;SDS011;13496;51.040;13.680;2022-09-09T07:40:38;2.22;;;1.50;;
25637;SDS011;13496;51.040;13.680;2022-09-09T07:45:41;3.78;;;1.58;;
25637;SDS011;13496;51.040;13.680;2022-09-09T07:50:43;2.30;;;1.60;;
25637;SDS011;13496;51.040;13.680;2022-09-09T07:55:45;3.80;;;1.52;;
25637;SDS011;13496;51.040;13.680;2022-09-09T08:00:47;1.73;;;1.63;;
25637;SDS011;13496;51.040;13.680;2022-09-09T08:05:49;4.47;;;1.48;;
25637;SDS011;13496;51.040;13.680;2022-09-09T08:10:51;2.58;;;1.80;;
25637;SDS011;13496;51.040;13.680;2022-09-09T08:15:55;1.80;;;1.30;;
25637;SDS011;13496;51.040;13.680;2022-09-09T08:20:57;2.42;;;1.60;;
25637;SDS011;13496;51.040;13.680;2022-09-09T08:26:06;1.73;;;1.30;;
25637;SDS011;13496;51.040;13.680;2022-09-09T08:36:17;1.75;;;1.25;;
25637;SDS011;13496;51.040;13.680;2022-09-09T08:46:51;2.20;;;1.48;;
25637;SDS011;13496;51.040;13.680;2022-09-09T08:52:25;1.35;;;1.20;;
25637;SDS011;13496;51.040;13.680;2022-09-09T08:57:31;3.28;;;1.40;;
25637;SDS011;13496;51.040;13.680;2022-09-09T09:07:56;1.75;;;1.08;;
25637;SDS011;13496;51.040;13.680;2022-09-09T09:13:17;1.80;;;0.98;;
25637;SDS011;13496;51.040;13.680;2022-09-09T09:18:23;2.22;;;1.17;;
25637;SDS011;13496;51.040;13.680;2022-09-09T09:23:29;2.13;;;1.20;;
25637;SDS011;13496;51.040;13.680;2022-09-09T09:28:39;2.45;;;1.38;;
25637;SDS011;13496;51.040;13.680;2022-09-09T09:33:48;3.03;;;1.30;;
25637;SDS011;13496;51.040;13.680;2022-09-09T09:38:57;2.72;;;1.13;;
25637;SDS011;13496;51.040;13.680;2022-09-09T09:44:03;2.78;;;1.30;;
25637;SDS011;13496;51.040;13.680;2022-09-09T09:49:08;1.70;;;1.40;;
25637;SDS011;13496;51.040;13.680;2022-09-09T09:59:19;1.48;;;1.20;;
25637;SDS011;13496;51.040;13.680;2022-09-09T10:04:35;1.65;;;0.98;;
25637;SDS011;13496;51.040;13.680;2022-09-09T10:09:37;1.65;;;1.10;;
25637;SDS011;13496;51.040;13.680;2022-09-09T10:31:07;2.42;;;1.10;;
25637;SDS011;13496;51.040;13.680;2022-09-09T10:36:13;2.88;;;1.50;;
25637;SDS011;13496;51.040;13.680;2022-09-09T10:47:17;3.10;;;1.63;;
25637;SDS011;13496;51.040;13.680;2022-09-09T10:52:42;2.15;;;1.15;;
25637;SDS011;13496;51.040;13.680;2022-09-09T10:58:09;2.28;;;1.10;;
25637;SDS011;13496;51.040;13.680;2022-09-09T11:03:31;1.70;;;1.00;;
25637;SDS011;13496;51.040;13.680;2022-09-09T11:08:38;1.60;;;1.08;;
25637;SDS011;13496;51.040;13.680;2022-09-09T11:19:43;1.88;;;0.90;;
25637;SDS011;13496;51.040;13.680;2022-09-09T11:29:40;1.60;;;1.30;;
25637;SDS011;13496;51.040;13.680;2022-09-09T11:35:01;2.35;;;1.40;;
25637;SDS011;13496;51.040;13.680;2022-09-09T11:40:22;1.73;;;1.10;;
25637;SDS011;13496;51.040;13.680;2022-09-09T11:45:26;3.75;;;1.30;;
25637;SDS011;13496;51.040;13.680;2022-09-09T11:50:39;1.88;;;1.20;;
25637;SDS011;13496;51.040;13.680;2022-09-09T11:55:41;4.18;;;1.50;;
25637;SDS011;13496;51.040;13.680;2022-09-09T12:00:47;2.45;;;1.17;;
25637;SDS011;13496;51.040;13.680;2022-09-09T12:05:49;1.40;;;1.20;;
25637;SDS011;13496;51.040;13.680;2022-09-09T12:10:54;1.90;;;1.40;;
25637;SDS011;13496;51.040;13.680;2022-09-09T12:15:58;1.98;;;1.40;;
25637;SDS011;13496;51.040;13.680;2022-09-09T12:21:07;2.22;;;1.27;;
25637;SDS011;13496;51.040;13.680;2022-09-09T12:37:02;1.75;;;1.17;;
25637;SDS011;13496;51.040;13.680;2022-09-09T12:42:20;2.33;;;1.50;;
25637;SDS011;13496;51.040;13.680;2022-09-09T12:47:24;4.38;;;1.42;;
25637;SDS011;13496;51.040;13.680;2022-09-09T12:52:40;2.60;;;1.30;;
25637;SDS011;13496;51.040;13.680;2022-09-09T12:57:42;2.67;;;1.30;;
25637;SDS011;13496;51.040;13.680;2022-09-09T13:02:46;2.92;;;1.75;;
25637;SDS011;13496;51.040;13.680;2022-09-09T13:07:51;2.25;;;1.65;;
25637;SDS011;13496;51.040;13.680;2022-09-09T13:13:02;3.00;;;1.60;;
25637;SDS011;13496;51.040;13.680;2022-09-09T13:18:05;2.30;;;1.40;;
25637;SDS011;13496;51.040;13.680;2022-09-09T13:23:13;2.88;;;1.60;;
25637;SDS011;13496;51.040;13.680;2022-09-09T13:28:23;1.52;;;1.25;;
25637;SDS011;13496;51.040;13.680;2022-09-09T13:33:31;1.30;;;1.20;;
25637;SDS011;13496;51.040;13.680;2022-09-09T13:38:40;3.97;;;1.38;;
25637;SDS011;13496;51.040;13.680;2022-09-09T13:43:54;1.63;;;1.38;;
25637;SDS011;13496;51.040;13.680;2022-09-09T13:49:18;1.55;;;1.25;;
25637;SDS011;13496;51.040;13.680;2022-09-09T13:54:23;5.38;;;1.60;;
25637;SDS011;13496;51.040;13.680;2022-09-09T13:59:24;4.05;;;1.23;;
25637;SDS011;13496;51.040;13.680;2022-09-09T14:04:27;2.45;;;1.67;;
25637;SDS011;13496;51.040;13.680;2022-09-09T14:09:28;2.80;;;1.70;;
25637;SDS011;13496;51.040;13.680;2022-09-09T14:14:30;2.95;;;1.50;;
25637;SDS011;13496;51.040;13.680;2022-09-09T14:19:32;4.43;;;1.52;;
25637;SDS011;13496;51.040;13.680;2022-09-09T14:24:34;2.15;;;1.48;;
25637;SDS011;13496;51.040;13.680;2022-09-09T14:29:35;5.63;;;2.20;;
25637;SDS011;13496;51.040;13.680;2022-09-09T14:34:37;5.78;;;3.00;;
25637;SDS011;13496;51.040;13.680;2022-09-09T14:39:39;12.98;;;5.68;;
25637;SDS011;13496;51.040;13.680;2022-09-09T14:44:41;23.80;;;14.90;;
25637;SDS011;13496;51.040;13.680;2022-09-09T14:49:42;25.17;;;16.35;;
25637;SDS011;13496;51.040;13.680;2022-09-09T14:54:44;23.08;;;13.38;;
25637;SDS011;13496;51.040;13.680;2022-09-09T14:59:46;33.67;;;21.85;;
25637;SDS011;13496;51.040;13.680;2022-09-09T15:04:47;45.55;;;27.50;;
25637;SDS011;13496;51.040;13.680;2022-09-09T15:09:51;25.77;;;17.02;;
25637;SDS011;13496;51.040;13.680;2022-09-09T15:14:53;36.25;;;22.75;;
25637;SDS011;13496;51.040;13.680;2022-09-09T15:19:56;28.38;;;18.98;;
25637;SDS011;13496;51.040;13.680;2022-09-09T15:24:58;23.17;;;14.75;;
25637;SDS011;13496;51.040;13.680;2022-09-09T15:29:59;23.42;;;13.65;;
25637;SDS011;13496;51.040;13.680;2022-09-09T15:35:02;17.58;;;11.10;;
25637;SDS011;13496;51.040;13.680;2022-09-09T15:40:04;15.43;;;9.77;;
25637;SDS011;13496;51.040;13.680;2022-09-09T15:45:06;15.65;;;9.40;;
25637;SDS011;13496;51.040;13.680;2022-09-09T15:50:08;11.98;;;8.18;;
25637;SDS011;13496;51.040;13.680;2022-09-09T15:55:10;13.13;;;8.88;;
25637;SDS011;13496;51.040;13.680;2022-09-09T16:00:12;12.38;;;8.07;;
25637;SDS011;13496;51.040;13.680;2022-09-09T16:05:15;13.77;;;7.35;;
25637;SDS011;13496;51.040;13.680;2022-09-09T16:10:17;9.60;;;5.70;;
25637;SDS011;13496;51.040;13.680;2022-09-09T16:15:18;9.25;;;5.03;;
25637;SDS011;13496;51.040;13.680;2022-09-09T16:20:23;6.40;;;4.50;;
25637;SDS011;13496;51.040;13.680;2022-09-09T16:25:26;9.48;;;5.82;;
25637;SDS011;13496;51.040;13.680;2022-09-09T16:30:28;6.30;;;4.32;;
25637;SDS011;13496;51.040;13.680;2022-09-09T16:35:30;6.07;;;4.60;;
25637;SDS011;13496;51.040;13.680;2022-09-09T16:40:33;8.95;;;4.97;;
25637;SDS011;13496;51.040;13.680;2022-09-09T16:45:41;6.28;;;4.43;;
25637;SDS011;13496;51.040;13.680;2022-09-09T16:50:46;6.70;;;4.10;;
25637;SDS011;13496;51.040;13.680;2022-09-09T16:55:47;8.95;;;4.35;;
25637;SDS011;13496;51.040;13.680;2022-09-09T17:00:49;6.47;;;3.28;;
25637;SDS011;13496;51.040;13.680;2022-09-09T17:05:52;4.82;;;3.22;;
25637;SDS011;13496;51.040;13.680;2022-09-09T17:10:54;3.95;;;3.03;;
25637;SDS011;13496;51.040;13.680;2022-09-09T17:15:56;5.13;;;3.08;;
25637;SDS011;13496;51.040;13.680;2022-09-09T17:21:02;4.97;;;2.80;;
25637;SDS011;13496;51.040;13.680;2022-09-09T17:26:05;5.50;;;2.65;;
25637;SDS011;13496;51.040;13.680;2022-09-09T17:31:09;5.35;;;2.88;;
25637;SDS011;13496;51.040;13.680;2022-09-09T17:36:13;5.18;;;2.67;;
25637;SDS011;13496;51.040;13.680;2022-09-09T17:41:38;9.85;;;3.00;;
25637;SDS011;13496;51.040;13.680;2022-09-09T17:46:42;3.95;;;2.60;;
25637;SDS011;13496;51.040;13.680;2022-09-09T17:51:44;5.32;;;2.47;;
25637;SDS011;13496;51.040;13.680;2022-09-09T17:56:46;5.90;;;2.63;;
25637;SDS011;13496;51.040;13.680;2022-09-09T18:01:49;3.25;;;2.67;;
25637;SDS011;13496;51.040;13.680;2022-09-09T18:06:51;4.15;;;2.90;;
25637;SDS011;13496;51.040;13.680;2022-09-09T18:11:55;3.20;;;2.50;;
25637;SDS011;13496;51.040;13.680;2022-09-09T18:16:58;3.70;;;2.10;;
25637;SDS011;13496;51.040;13.680;2022-09-09T18:22:04;3.30;;;2.17;;
25637;SDS011;13496;51.040;13.680;2022-09-09T18:27:07;8.57;;;2.97;;
25637;SDS011;13496;51.040;13.680;2022-09-09T18:32:08;4.43;;;2.42;;
25637;SDS011;13496;51.040;13.680;2022-09-09T18:37:10;5.72;;;3.13;;
25637;SDS011;13496;51.040;13.680;2022-09-09T18:42:12;7.43;;;3.75;;
25637;SDS011;13496;51.040;13.680;2022-09-09T18:47:14;6.53;;;3.30;;
25637;SDS011;13496;51.040;13.680;2022-09-09T18:52:16;6.03;;;3.00;;
25637;SDS011;13496;51.040;13.680;2022-09-09T18:57:17;6.35;;;3.60;;
25637;SDS011;13496;51.040;13.680;2022-09-09T19:02:19;5.60;;;3.60;;
25637;SDS011;13496;51.040;13.680;2022-09-09T19:07:22;3.88;;;3.30;;
25637;SDS011;13496;51.040;13.680;2022-09-09T19:12:23;5.47;;;3.83;;
25637;SDS011;13496;51.040;13.680;2022-09-09T19:17:25;4.85;;;4.13;;
25637;SDS011;13496;51.040;13.680;2022-09-09T19:22:28;7.47;;;4.40;;
25637;SDS011;13496;51.040;13.680;2022-09-09T19:27:30;8.50;;;4.15;;
25637;SDS011;13496;51.040;13.680;2022-09-09T19:32:32;5.20;;;4.07;;
25637;SDS011;13496;51.040;13.680;2022-09-09T19:37:34;5.40;;;3.85;;
25637;SDS011;13496;51.040;13.680;2022-09-09T19:42:35;6.30;;;3.65;;
25637;SDS011;13496;51.040;13.680;2022-09-09T19:47:37;7.78;;;4.43;;
25637;SDS011;13496;51.040;13.680;2022-09-09T19:52:40;4.65;;;3.25;;
25637;SDS011;13496;51.040;13.680;2022-09-09T19:57:42;7.05;;;4.13;;
25637;SDS011;13496;51.040;13.680;2022-09-09T20:02:44;6.55;;;4.57;;
25637;SDS011;13496;51.040;13.680;2022-09-09T20:07:45;5.65;;;3.97;;
25637;SDS011;13496;51.040;13.680;2022-09-09T20:12:47;7.57;;;4.07;;
25637;SDS011;13496;51.040;13.680;2022-09-09T20:17:49;5.65;;;4.63;;
25637;SDS011;13496;51.040;13.680;2022-09-09T20:22:52;5.45;;;4.32;;
25637;SDS011;13496;51.040;13.680;2022-09-09T20:27:53;7.57;;;4.88;;
25637;SDS011;13496;51.040;13.680;2022-09-09T20:32:55;5.55;;;4.53;;
25637;SDS011;13496;51.040;13.680;2022-09-09T20:37:57;6.35;;;4.50;;
25637;SDS011;13496;51.040;13.680;2022-09-09T20:42:59;7.60;;;4.72;;
25637;SDS011;13496;51.040;13.680;2022-09-09T20:48:01;5.25;;;4.35;;
25637;SDS011;13496;51.040;13.680;2022-09-09T20:53:04;5.18;;;4.45;;
25637;SDS011;13496;51.040;13.680;2022-09-09T20:58:06;4.97;;;3.90;;
25637;SDS011;13496;51.040;13.680;2022-09-09T21:03:08;4.70;;;4.00;;
25637;SDS011;13496;51.040;13.680;2022-09-09T21:08:09;6.38;;;4.22;;
25637;SDS011;13496;51.040;13.680;2022-09-09T21:13:11;5.60;;;3.65;;
25637;SDS011;13496;51.040;13.680;2022-09-09T21:18:13;5.70;;;3.88;;
25637;SDS011;13496;51.040;13.680;2022-09-09T21:23:16;4.43;;;3.50;;
25637;SDS011;13496;51.040;13.680;2022-09-09T21:28:18;3.42;;;3.13;;
25637;SDS011;13496;51.040;13.680;2022-09-09T21:33:21;3.83;;;3.40;;
25637;SDS011;13496;51.040;13.680;2022-09-09T21:38:24;4.45;;;3.20;;
25637;SDS011;13496;51.040;13.680;2022-09-09T21:43:26;4.70;;;3.30;;
25637;SDS011;13496;51.040;13.680;2022-09-09T21:48:27;4.13;;;2.80;;
25637;SDS011;13496;51.040;13.680;2022-09-09T21:53:29;4.28;;;3.13;;
25637;SDS011;13496;51.040;13.680;2022-09-09T21:58:33;3.42;;;2.90;;
25637;SDS011;13496;51.040;13.680;2022-09-09T22:03:35;3.88;;;2.80;;
25637;SDS011;13496;51.040;13.680;2022-09-09T22:08:38;3.38;;;3.03;;
25637;SDS011;13496;51.040;13.680;2022-09-09T22:13:40;3.83;;;2.70;;
25637;SDS011;13496;51.040;13.680;2022-09-09T22:18:43;4.10;;;2.60;;
25637;SDS011;13496;51.040;13.680;2022-09-09T22:23:49;3.47;;;2.58;;
25637;SDS011;13496;51.040;13.680;2022-09-09T22:28:55;4.97;;;2.50;;
25637;SDS011;13496;51.040;13.680;2022-09-09T22:33:57;5.05;;;2.75;;
25637;SDS011;13496;51.040;13.680;2022-09-09T22:38:59;3.92;;;2.50;;
25637;SDS011;13496;51.040;13.680;2022-09-09T22:44:02;2.90;;;2.13;;
25637;SDS011;13496;51.040;13.680;2022-09-09T22:49:05;3.78;;;2.50;;
25637;SDS011;13496;51.040;13.680;2022-09-09T22:54:06;4.28;;;2.20;;
25637;SDS011;13496;51.040;13.680;2022-09-09T22:59:09;2.40;;;2.20;;
25637;SDS011;13496;51.040;13.680;2022-09-09T23:04:11;3.72;;;2.50;;
25637;SDS011;13496;51.040;13.680;2022-09-09T23:09:13;3.08;;;2.33;;
25637;SDS011;13496;51.040;13.680;2022-09-09T23:14:15;3.00;;;1.95;;
25637;SDS011;13496;51.040;13.680;2022-09-09T23:19:17;2.00;;;1.85;;
25637;SDS011;13496;51.040;13.680;2022-09-09T23:24:20;3.38;;;1.92;;
25637;SDS011;13496;51.040;13.680;2022-09-09T23:29:22;3.30;;;2.17;;
25637;SDS011;13496;51.040;13.680;2022-09-09T23:34:24;2.03;;;1.70;;
25637;SDS011;13496;51.040;13.680;2022-09-09T23:39:25;2.33;;;1.80;;
25637;SDS011;13496;51.040;13.680;2022-09-09T23:44:27;1.80;;;1.70;;
25637;SDS011;13496;51.040;13.680;2022-09-09T23:49:30;1.98;;;1.83;;
25637;SDS011;13496;51.040;13.680;2022-09-09T23:54:34;3.13;;;1.85;;
25637;SDS011;13496;51.040;13.680;2022-09-09T23:59:35;1.92;;;1.83;;
